Time;durP1;ratioP1;P1;durP2;ratioP2;P2;SDS_P1;SDS_P2;PMS_P1;PMS_P2;Temp;Humidity;BMP_temperature;BMP_pressure;BME280_temperature;BME280_humidity;BME280_pressure;Samples;Min_cycle;Max_cycle;Signal;HPM_P1;HPM_P2
2021/05/31 00:01:50;;;;;;;9.73;5.00;;;;;;;5.96;100.00;98563.91;4973480;28;20138;-75
2021/05/31 00:04:16;;;;;;;10.18;4.65;;;;;;;5.96;100.00;98561.22;4972863;28;20406;-75
2021/05/31 00:06:53;;;;;;;8.13;4.85;;;;;;;5.98;100.00;98556.41;4973402;28;20054;-76
2021/05/31 00:09:19;;;;;;;8.95;4.72;;;;;;;5.89;100.00;98557.97;4973757;28;20042;-74
2021/05/31 00:11:46;;;;;;;8.07;4.85;;;;;;;5.94;100.00;98555.31;4955936;28;20114;-75
2021/05/31 00:14:12;;;;;;;9.55;4.78;;;;;;;5.92;100.00;98545.91;4972819;28;20139;-75
2021/05/31 00:16:39;;;;;;;10.68;4.60;;;;;;;5.83;100.00;98544.75;4971653;28;20054;-76
2021/05/31 00:19:07;;;;;;;7.10;4.65;;;;;;;5.76;100.00;98546.84;4972935;28;20487;-75
2021/05/31 00:21:33;;;;;;;10.35;4.97;;;;;;;5.69;100.00;98547.09;4973142;28;20043;-75
2021/05/31 00:24:00;;;;;;;7.85;4.45;;;;;;;5.61;100.00;98544.91;4974897;28;20054;-75
2021/05/31 00:26:27;;;;;;;9.10;4.78;;;;;;;5.67;100.00;98541.19;4973123;28;20430;-75
2021/05/31 00:28:55;;;;;;;8.77;4.88;;;;;;;5.53;100.00;98538.16;4972496;28;20062;-75
2021/05/31 00:31:22;;;;;;;8.82;4.85;;;;;;;5.57;100.00;98531.19;4972800;28;20046;-76
2021/05/31 00:33:49;;;;;;;7.57;5.00;;;;;;;5.62;100.00;98530.41;4974275;28;20041;-75
2021/05/31 00:36:17;;;;;;;7.70;5.03;;;;;;;5.68;100.00;98531.25;4972946;28;20549;-75
2021/05/31 00:38:43;;;;;;;6.50;4.30;;;;;;;5.62;100.00;98530.41;4972829;28;20047;-75
2021/05/31 00:41:10;;;;;;;13.35;5.03;;;;;;;5.65;100.00;98527.22;4972625;28;20109;-74
2021/05/31 00:43:37;;;;;;;6.20;4.47;;;;;;;5.70;100.00;98521.06;4971424;28;20133;-76
2021/05/31 00:46:05;;;;;;;7.85;4.85;;;;;;;5.69;100.00;98528.31;4954872;28;20101;-75
2021/05/31 00:48:34;;;;;;;8.70;4.57;;;;;;;5.65;100.00;98521.84;4970866;28;20569;-74
2021/05/31 00:51:05;;;;;;;7.88;4.85;;;;;;;5.66;100.00;98523.44;4971407;28;20039;-74
2021/05/31 00:53:34;;;;;;;9.43;4.45;;;;;;;5.65;100.00;98530.69;4971933;28;20411;-75
2021/05/31 00:56:02;;;;;;;7.60;5.03;;;;;;;5.61;100.00;98526.09;4954666;28;20627;-74
2021/05/31 00:58:30;;;;;;;6.72;5.05;;;;;;;5.50;100.00;98514.50;4972146;28;20053;-75
2021/05/31 01:00:59;;;;;;;8.50;5.20;;;;;;;5.51;100.00;98516.13;4971041;28;20047;-72
2021/05/31 01:03:27;;;;;;;8.45;4.65;;;;;;;5.47;100.00;98516.91;4972026;28;20093;-74
2021/05/31 01:05:56;;;;;;;7.03;4.43;;;;;;;5.47;100.00;98514.22;4972136;28;20046;-74
2021/05/31 01:08:31;;;;;;;7.43;4.32;;;;;;;5.31;100.00;98504.47;4971772;28;20514;-74
2021/05/31 01:11:04;;;;;;;7.50;4.82;;;;;;;5.39;100.00;98522.78;4955000;28;20058;-75
2021/05/31 01:13:41;;;;;;;7.75;4.70;;;;;;;5.30;100.00;98509.03;4955460;28;20047;-74
2021/05/31 01:16:17;;;;;;;10.20;5.45;;;;;;;5.30;100.00;98510.88;4974834;28;20116;-75
2021/05/31 01:18:48;;;;;;;10.13;5.70;;;;;;;5.27;100.00;98520.28;4972915;28;20057;-75
2021/05/31 01:21:40;;;;;;;9.38;5.28;;;;;;;5.36;100.00;98508.00;4972535;28;20051;-76
2021/05/31 01:24:22;;;;;;;14.13;5.78;;;;;;;5.37;100.00;98503.41;4972093;28;20039;-75
2021/05/31 01:26:59;;;;;;;8.77;5.75;;;;;;;5.44;100.00;98504.81;4972261;28;20045;-75
2021/05/31 01:29:26;;;;;;;10.38;5.95;;;;;;;5.46;100.00;98501.88;4954647;28;20527;-76
2021/05/31 01:31:59;;;;;;;9.27;5.80;;;;;;;5.46;100.00;98508.03;4972750;28;20050;-75
2021/05/31 01:34:28;;;;;;;11.07;6.40;;;;;;;5.52;100.00;98511.56;4994434;23;20058;-76
2021/05/31 01:37:00;;;;;;;7.95;6.03;;;;;;;5.42;100.00;98506.16;4989270;28;20046;-77
2021/05/31 01:39:30;;;;;;;9.82;6.22;;;;;;;5.49;100.00;98496.78;4986949;28;20425;-76
2021/05/31 01:41:58;;;;;;;9.73;5.97;;;;;;;5.39;100.00;98501.28;4988366;28;20104;-77
2021/05/31 01:44:26;;;;;;;8.50;5.45;;;;;;;5.37;100.00;98504.22;4973857;28;20378;-77
2021/05/31 01:46:53;;;;;;;7.30;5.22;;;;;;;5.28;100.00;98503.09;4991487;28;20057;-77
2021/05/31 01:49:20;;;;;;;9.95;5.60;;;;;;;5.27;100.00;98500.66;4973624;28;20065;-76
2021/05/31 01:51:49;;;;;;;7.18;5.10;;;;;;;5.24;100.00;98504.69;4991763;28;20039;-77
2021/05/31 01:54:17;;;;;;;12.27;5.30;;;;;;;5.13;100.00;98502.19;4997969;28;20097;-76
2021/05/31 01:56:49;;;;;;;8.98;5.13;;;;;;;5.17;100.00;98497.91;4999237;28;20050;-76
2021/05/31 01:59:20;;;;;;;7.80;5.38;;;;;;;5.12;100.00;98497.88;4998582;28;20050;-76
2021/05/31 02:01:52;;;;;;;8.98;5.47;;;;;;;4.81;100.00;98507.59;4999723;28;20045;-76
2021/05/31 02:04:19;;;;;;;8.52;6.00;;;;;;;4.75;100.00;98506.72;5011468;28;20033;-76
2021/05/31 02:06:49;;;;;;;10.50;6.00;;;;;;;4.67;100.00;98506.41;5015166;28;20053;-77
2021/05/31 02:09:15;;;;;;;13.23;6.55;;;;;;;4.57;100.00;98507.13;5009800;28;20049;-77
2021/05/31 02:11:56;;;;;;;11.00;6.85;;;;;;;4.54;100.00;98501.47;5008848;28;20145;-76
2021/05/31 02:14:29;;;;;;;14.00;6.60;;;;;;;4.33;100.00;98506.66;4992675;28;20038;-77
2021/05/31 02:17:16;;;;;;;16.63;7.70;;;;;;;4.20;100.00;98514.28;5010412;28;20124;-77
2021/05/31 02:19:45;;;;;;;11.30;7.40;;;;;;;4.06;100.00;98511.16;5009835;28;20038;-77
2021/05/31 02:22:13;;;;;;;13.05;7.93;;;;;;;4.18;100.00;98516.41;4991818;28;20448;-77
2021/05/31 02:24:41;;;;;;;16.85;8.48;;;;;;;4.15;100.00;98512.34;5008875;28;20124;-76
2021/05/31 02:27:08;;;;;;;13.73;8.27;;;;;;;4.06;100.00;98516.53;5008920;28;20451;-77
2021/05/31 02:29:36;;;;;;;15.80;7.82;;;;;;;4.06;100.00;98511.16;4990336;28;20042;-76
2021/05/31 02:32:05;;;;;;;12.40;7.68;;;;;;;4.10;100.00;98523.03;5007651;28;20042;-77
2021/05/31 02:34:33;;;;;;;14.40;8.10;;;;;;;4.21;100.00;98507.84;5006710;28;20057;-76
2021/05/31 02:37:00;;;;;;;13.68;8.27;;;;;;;4.28;100.00;98514.59;4991087;28;20045;-76
2021/05/31 02:39:27;;;;;;;14.07;7.85;;;;;;;4.34;100.00;98508.25;5009322;28;20046;-76
2021/05/31 02:41:53;;;;;;;11.70;7.03;;;;;;;4.21;100.00;98508.66;5009736;28;20082;-76
2021/05/31 02:44:20;;;;;;;13.88;7.45;;;;;;;4.10;100.00;98495.41;5008584;28;20045;-78
2021/05/31 02:46:49;;;;;;;13.50;7.95;;;;;;;4.18;100.00;98508.38;4991313;28;20087;-76
2021/05/31 02:49:16;;;;;;;11.45;7.38;;;;;;;4.23;100.00;98500.38;4973357;28;20050;-76
2021/05/31 02:51:44;;;;;;;13.27;7.63;;;;;;;4.27;100.00;98510.31;4990087;28;20054;-77
2021/05/31 02:54:12;;;;;;;11.05;6.80;;;;;;;4.30;100.00;98503.66;4990595;28;20106;-77
2021/05/31 02:56:40;;;;;;;12.63;7.03;;;;;;;4.39;100.00;98502.94;4972551;28;20050;-77
2021/05/31 02:59:06;;;;;;;11.30;6.40;;;;;;;4.37;100.00;98497.03;4990218;28;20046;-76
2021/05/31 03:01:33;;;;;;;15.02;6.65;;;;;;;4.35;100.00;98496.47;4987776;28;20061;-77
2021/05/31 03:04:02;;;;;;;11.75;6.57;;;;;;;4.26;100.00;98497.16;4988872;28;20055;-76
2021/05/31 03:06:28;;;;;;;16.92;6.68;;;;;;;4.28;100.00;98506.56;4973595;28;20401;-77
2021/05/31 03:08:55;;;;;;;11.70;6.40;;;;;;;4.20;100.00;98503.56;4990118;28;20050;-76
2021/05/31 03:11:22;;;;;;;9.60;6.07;;;;;;;4.22;100.00;98501.44;4990298;28;20042;-76
2021/05/31 03:13:51;;;;;;;10.88;5.95;;;;;;;4.17;100.00;98498.69;4973651;28;20080;-76
2021/05/31 03:16:19;;;;;;;9.52;5.60;;;;;;;4.24;100.00;98510.00;4995484;28;20030;-76
2021/05/31 03:18:46;;;;;;;9.77;6.05;;;;;;;4.26;100.00;98507.88;4993305;28;20054;-77
2021/05/31 03:21:13;;;;;;;8.50;5.90;;;;;;;4.16;100.00;98513.13;4994674;28;20054;-76
2021/05/31 03:23:40;;;;;;;9.48;5.70;;;;;;;4.24;100.00;98515.38;4994262;28;20030;-77
2021/05/31 03:26:07;;;;;;;12.60;6.57;;;;;;;4.13;100.00;98508.31;4977204;28;20046;-77
2021/05/31 03:28:34;;;;;;;10.20;6.47;;;;;;;4.22;100.00;98512.16;4976792;28;20125;-77
2021/05/31 03:31:00;;;;;;;9.50;6.32;;;;;;;4.23;100.00;98513.78;4975770;28;20050;-77
2021/05/31 03:33:27;;;;;;;9.30;5.95;;;;;;;4.31;100.00;98511.44;4992745;28;20077;-76
2021/05/31 03:35:54;;;;;;;9.15;5.32;;;;;;;4.43;100.00;98519.34;4974289;28;20050;-77
2021/05/31 03:38:20;;;;;;;8.63;6.03;;;;;;;4.42;100.00;98517.69;4992101;28;20112;-77
2021/05/31 03:40:47;;;;;;;10.45;6.20;;;;;;;4.44;100.00;98512.09;4959122;28;20050;-77
2021/05/31 03:43:14;;;;;;;8.02;5.50;;;;;;;4.39;100.00;98520.88;4991883;28;20497;-76
2021/05/31 03:45:40;;;;;;;5.93;4.75;;;;;;;4.40;100.00;98520.66;4974024;28;20153;-76
2021/05/31 03:48:07;;;;;;;8.73;5.65;;;;;;;4.41;100.00;98516.09;4992035;28;20286;-77
2021/05/31 03:50:34;;;;;;;8.68;5.55;;;;;;;4.44;100.00;98512.09;4994031;28;20054;-77
2021/05/31 03:53:01;;;;;;;8.60;5.70;;;;;;;4.49;100.00;98515.63;4995185;28;20059;-77
2021/05/31 03:55:27;;;;;;;9.45;5.38;;;;;;;4.53;100.00;98522.09;4992239;28;20042;-78
2021/05/31 03:57:54;;;;;;;9.43;5.20;;;;;;;4.60;100.00;98525.38;4975954;28;20046;-77
2021/05/31 04:00:21;;;;;;;8.38;5.78;;;;;;;4.60;100.00;98521.88;4991842;28;20038;-77
2021/05/31 04:02:48;;;;;;;11.50;6.03;;;;;;;4.67;100.00;98512.56;4975429;28;20083;-77
2021/05/31 04:05:16;;;;;;;9.50;5.93;;;;;;;4.80;100.00;98530.91;4992326;28;20073;-76
2021/05/31 04:13:19;;;;;;;16.35;6.95;;;;;;;5.03;100.00;98519.06;5003923;28;20045;-77
2021/05/31 04:15:46;;;;;;;11.38;7.75;;;;;;;5.10;100.00;98524.19;4978587;28;20049;-77
2021/05/31 04:18:13;;;;;;;11.85;7.18;;;;;;;5.12;100.00;98514.81;4996285;28;20042;-77
2021/05/31 04:20:39;;;;;;;12.48;7.97;;;;;;;5.23;100.00;98523.75;4996790;28;20073;-78
2021/05/31 04:23:06;;;;;;;13.05;8.15;;;;;;;5.36;100.00;98520.59;5015505;28;20136;-78
2021/05/31 04:25:34;;;;;;;16.95;8.68;;;;;;;5.41;100.00;98520.63;5016299;28;20053;-78
2021/05/31 04:28:01;;;;;;;16.63;8.23;;;;;;;5.55;100.00;98527.13;5016879;28;20038;-78
2021/05/31 04:30:27;;;;;;;17.13;8.88;;;;;;;5.66;100.00;98524.25;5017636;28;20054;-77
2021/05/31 04:32:54;;;;;;;18.30;10.25;;;;;;;5.77;100.00;98525.13;5001105;28;20158;-77
2021/05/31 04:35:21;;;;;;;18.10;9.57;;;;;;;5.87;100.00;98527.88;5000561;28;20049;-77
2021/05/31 04:37:47;;;;;;;15.07;9.85;;;;;;;6.00;100.00;98529.28;4998538;28;20076;-78
2021/05/31 04:40:15;;;;;;;16.60;9.80;;;;;;;6.10;100.00;98529.31;5001731;28;20083;-79
2021/05/31 04:42:42;;;;;;;14.48;9.77;;;;;;;6.22;100.00;98530.69;5018229;28;20038;-78
2021/05/31 04:45:09;;;;;;;14.02;9.50;;;;;;;6.28;100.00;98523.44;5012121;28;20042;-77
2021/05/31 04:47:36;;;;;;;14.35;9.20;;;;;;;6.32;100.00;98524.53;5010474;28;20046;-78
2021/05/31 04:50:03;;;;;;;15.80;9.05;;;;;;;6.49;100.00;98522.41;5010674;28;20125;-79
2021/05/31 04:52:29;;;;;;;13.93;8.80;;;;;;;6.64;100.00;98527.81;5012641;28;20045;-78
2021/05/31 04:54:56;;;;;;;13.00;8.27;;;;;;;6.72;100.00;98531.84;4995419;28;20042;-78
2021/05/31 04:57:23;;;;;;;14.35;8.27;;;;;;;6.83;100.00;98528.09;4988997;28;20050;-78
2021/05/31 04:59:49;;;;;;;14.95;8.45;;;;;;;6.90;100.00;98529.44;4956604;28;20065;-78
2021/05/31 05:02:16;;;;;;;18.25;8.40;;;;;;;7.03;100.00;98529.97;4972138;28;20046;-78
2021/05/31 05:04:43;;;;;;;17.20;8.80;;;;;;;7.12;100.00;98526.50;4972064;28;20038;-78
2021/05/31 05:07:14;;;;;;;13.00;8.18;;;;;;;7.24;100.00;98529.72;4995706;28;20093;-78
2021/05/31 05:09:40;;;;;;;18.02;8.38;;;;;;;7.32;100.00;98521.09;4971109;28;20058;-78
2021/05/31 05:12:07;;;;;;;14.77;8.13;;;;;;;7.46;100.00;98508.66;4968969;28;20631;-77
2021/05/31 05:14:34;;;;;;;12.80;7.85;;;;;;;7.66;100.00;98515.06;4986606;28;20062;-77
2021/05/31 05:17:01;;;;;;;15.32;8.63;;;;;;;7.77;100.00;98512.06;4986881;28;20093;-77
2021/05/31 05:19:28;;;;;;;14.57;8.18;;;;;;;7.92;100.00;98509.28;4965430;28;20042;-75
2021/05/31 05:21:54;;;;;;;13.57;8.60;;;;;;;8.05;100.00;98506.00;4985023;28;20073;-78
2021/05/31 05:24:21;;;;;;;17.23;9.00;;;;;;;8.19;100.00;98503.53;4969712;28;20054;-77
2021/05/31 05:26:48;;;;;;;12.45;8.13;;;;;;;8.32;100.00;98507.53;4976167;28;20148;-77
2021/05/31 05:29:14;;;;;;;16.95;8.65;;;;;;;8.44;100.00;98513.41;4986580;28;20759;-77
2021/05/31 05:31:41;;;;;;;11.40;8.18;;;;;;;8.60;100.00;98504.91;4969401;28;20050;-77
2021/05/31 05:34:08;;;;;;;11.40;7.75;;;;;;;8.70;100.00;98507.53;4989908;28;20047;-77
2021/05/31 05:44:24;;;;;;;;;;;;;;;9.21;100.00;98501.72;4984352;28;20134;-75
2021/05/31 05:47:04;;;;;;;19.50;11.50;;;;;;;9.32;100.00;98503.22;4989644;28;19941;-77
2021/05/31 05:49:30;;;;;;;16.10;10.63;;;;;;;9.43;100.00;98496.63;4990059;28;20145;-76
2021/05/31 05:51:57;;;;;;;19.38;9.65;;;;;;;9.56;100.00;98498.66;5008573;28;20038;-77
2021/05/31 05:54:23;;;;;;;15.65;8.15;;;;;;;9.67;100.00;98500.19;5011500;28;20161;-77
2021/05/31 05:56:50;;;;;;;13.45;7.47;;;;;;;9.81;100.00;98503.78;5001639;28;20764;-77
2021/05/31 05:59:17;;;;;;;12.50;7.63;;;;;;;9.99;100.00;98497.59;4985664;28;20042;-77
2021/05/31 06:01:44;;;;;;;16.05;7.97;;;;;;;10.14;100.00;98493.94;5008328;28;20119;-77
2021/05/31 06:04:11;;;;;;;16.45;7.55;;;;;;;10.29;100.00;98498.34;4991377;28;20431;-77
2021/05/31 06:06:37;;;;;;;11.27;7.55;;;;;;;10.42;100.00;98503.84;4980050;28;20057;-77
2021/05/31 06:09:05;;;;;;;15.00;6.80;;;;;;;10.54;100.00;98503.41;4989588;28;20118;-77
2021/05/31 06:11:32;;;;;;;11.18;6.38;;;;;;;10.69;100.00;98507.78;5003098;28;20042;-78
2021/05/31 06:14:05;;;;;;;10.93;5.57;;;;;;;10.82;100.00;98499.72;4989298;28;20046;-76
2021/05/31 06:16:31;;;;;;;10.88;5.97;;;;;;;10.94;100.00;98500.06;5006665;28;20504;-77
2021/05/31 06:18:58;;;;;;;10.38;6.40;;;;;;;11.06;100.00;98500.41;5006600;28;20042;-77
2021/05/31 06:21:24;;;;;;;12.13;5.90;;;;;;;11.20;100.00;98500.47;4989016;28;20054;-76
2021/05/31 06:23:51;;;;;;;8.93;5.32;;;;;;;11.33;100.00;98505.06;4992638;28;20050;-77
2021/05/31 06:26:18;;;;;;;8.35;5.72;;;;;;;11.42;100.00;98505.22;5001721;28;20053;-78
2021/05/31 06:28:44;;;;;;;8.70;5.80;;;;;;;11.50;100.00;98502.63;4990286;28;20057;-79
2021/05/31 06:31:11;;;;;;;8.32;5.20;;;;;;;11.61;100.00;98501.34;4986477;28;20370;-76
2021/05/31 06:33:37;;;;;;;7.65;4.95;;;;;;;11.73;100.00;98498.94;5002727;28;20489;-77
2021/05/31 06:36:09;;;;;;;11.02;5.53;;;;;;;11.92;100.00;98493.44;5009865;28;20066;-76
2021/05/31 06:38:36;;;;;;;9.95;5.40;;;;;;;11.95;100.00;98489.31;5007669;28;20046;-77
2021/05/31 06:41:04;;;;;;;8.98;5.03;;;;;;;12.09;100.00;98496.31;4990521;28;20073;-77
2021/05/31 06:43:31;;;;;;;6.72;4.88;;;;;;;12.19;100.00;98492.56;4989468;28;20065;-76
2021/05/31 06:45:59;;;;;;;11.88;5.20;;;;;;;12.22;100.00;98500.94;4988946;28;20053;-76
2021/05/31 06:48:27;;;;;;;11.40;4.85;;;;;;;12.37;100.00;98488.94;5009155;28;20137;-75
2021/05/31 06:50:54;;;;;;;8.82;4.20;;;;;;;12.50;100.00;98483.47;5010652;28;20053;-75
2021/05/31 06:53:20;;;;;;;6.38;3.90;;;;;;;12.58;100.00;98484.66;5010013;28;20049;-78
2021/05/31 06:55:47;;;;;;;8.40;4.30;;;;;;;12.66;100.00;98491.25;5011553;28;20546;-78
2021/05/31 06:58:14;;;;;;;8.30;4.70;;;;;;;12.87;100.00;98493.19;5013213;28;20038;-77
2021/05/31 07:00:43;;;;;;;9.98;4.78;;;;;;;13.08;100.00;98488.09;5017010;28;20049;-78
2021/05/31 07:03:09;;;;;;;8.32;4.55;;;;;;;13.09;100.00;98489.69;4992864;28;20038;-77
2021/05/31 07:05:36;;;;;;;8.75;3.90;;;;;;;13.27;100.00;98491.41;5011599;28;20038;-76
2021/05/31 07:08:03;;;;;;;6.82;4.40;;;;;;;13.41;100.00;98486.69;4976857;28;20048;-76
2021/05/31 07:10:30;;;;;;;10.48;3.67;;;;;;;13.49;100.00;98490.56;4992783;28;20476;-75
2021/05/31 07:12:57;;;;;;;6.88;4.00;;;;;;;13.47;100.00;98488.16;4992126;28;20141;-76
2021/05/31 07:15:24;;;;;;;7.63;3.60;;;;;;;13.50;100.00;98492.16;4991400;28;20049;-75
2021/05/31 07:17:52;;;;;;;6.90;3.65;;;;;;;13.79;100.00;98486.22;4991976;28;20053;-76
2021/05/31 07:20:19;;;;;;;4.57;3.08;;;;;;;13.95;100.00;98490.13;5009539;28;20052;-75
2021/05/31 07:22:47;;;;;;;4.85;3.60;;;;;;;13.93;100.00;98495.09;4991752;28;20432;-75
2021/05/31 07:25:16;;;;;;;4.93;3.30;;;;;;;14.01;100.00;98484.22;5009915;28;20061;-77
2021/05/31 07:27:45;;;;;;;4.80;2.92;;;;;;;14.21;100.00;98486.34;4992554;28;20421;-77
2021/05/31 07:30:21;;;;;;;4.93;3.03;;;;;;;14.29;100.00;98482.84;4992428;28;20050;-76
2021/05/31 07:32:51;;;;;;;4.68;3.10;;;;;;;14.45;100.00;98493.31;4994502;28;20046;-77
2021/05/31 07:35:18;;;;;;;6.97;3.20;;;;;;;14.47;100.00;98485.63;5034087;23;20053;-79
2021/05/31 07:37:45;;;;;;;4.28;2.70;;;;;;;14.60;100.00;98488.19;5020828;28;20094;-78
2021/05/31 07:40:15;;;;;;;3.30;2.63;;;;;;;15.20;100.00;98496.31;5024856;28;20096;-77
2021/05/31 07:42:43;;;;;;;3.97;2.33;;;;;;;15.50;100.00;98492.59;5023826;28;20046;-78
2021/05/31 07:45:10;;;;;;;4.47;2.30;;;;;;;16.87;77.56;98485.56;5046432;28;20068;-78
2021/05/31 07:47:37;;;;;;;4.22;2.70;;;;;;;17.34;69.13;98484.13;5041035;28;20107;-79
2021/05/31 07:50:07;;;;;;;2.88;2.45;;;;;;;17.22;78.86;98489.56;5052421;28;20040;-78
2021/05/31 07:52:34;;;;;;;5.07;3.05;;;;;;;16.57;79.02;98478.59;5032628;28;20056;-78
2021/05/31 07:55:02;;;;;;;6.72;2.90;;;;;;;15.92;72.49;98482.66;5021311;28;20132;-79
2021/05/31 07:57:29;;;;;;;2.97;2.25;;;;;;;16.00;81.74;98476.31;5033486;28;20176;-78
2021/05/31 07:59:55;;;;;;;4.93;3.28;;;;;;;16.06;94.79;98490.59;5037591;28;20037;-77
2021/05/31 08:02:23;;;;;;;5.38;3.47;;;;;;;15.95;100.00;98490.16;5031669;28;20189;-79
2021/05/31 08:04:50;;;;;;;7.22;4.10;;;;;;;16.00;100.00;98479.06;5061285;28;20084;-78
2021/05/31 08:07:19;;;;;;;5.88;4.72;;;;;;;15.71;100.00;98481.78;5033976;28;20067;-79
2021/05/31 08:09:48;;;;;;;8.93;4.40;;;;;;;15.82;100.00;98474.81;5050976;28;20041;-78
2021/05/31 08:12:15;;;;;;;7.00;4.07;;;;;;;15.69;100.00;98483.22;5053925;28;20060;-78
2021/05/31 08:14:41;;;;;;;6.65;3.60;;;;;;;15.90;99.47;98473.97;5035095;28;20040;-78
2021/05/31 08:17:08;;;;;;;3.42;2.58;;;;;;;16.09;85.58;98470.81;5050181;28;20041;-72
2021/05/31 08:19:35;;;;;;;5.32;2.30;;;;;;;16.16;79.04;98473.81;5044077;28;20511;-71
2021/05/31 08:22:04;;;;;;;3.60;2.47;;;;;;;16.34;80.38;98471.78;5052614;28;20657;-73
2021/05/31 08:24:31;;;;;;;4.13;2.60;;;;;;;16.53;100.00;98466.69;5072349;28;20040;-79
2021/05/31 08:26:57;;;;;;;4.40;2.55;;;;;;;16.50;78.71;98461.88;5056527;28;20045;-79
2021/05/31 08:29:24;;;;;;;5.95;3.13;;;;;;;16.55;92.34;98467.16;5056803;28;20066;-80
2021/05/31 08:31:52;;;;;;;8.00;2.55;;;;;;;16.91;95.37;98469.28;5075881;28;20442;-79
2021/05/31 08:34:19;;;;;;;3.70;2.38;;;;;;;17.06;82.22;98474.91;5056747;28;20051;-78
2021/05/31 08:36:46;;;;;;;3.90;2.20;;;;;;;16.91;68.63;98470.06;5057856;28;20055;-78
2021/05/31 08:39:13;;;;;;;3.35;2.05;;;;;;;16.88;70.60;98468.00;5056485;28;20055;-79
2021/05/31 08:41:41;;;;;;;2.45;2.08;;;;;;;16.91;68.50;98472.81;5067575;28;20041;-80
2021/05/31 08:44:07;;;;;;;4.47;2.30;;;;;;;17.16;65.76;98468.25;5054602;28;20037;-79
2021/05/31 08:46:35;;;;;;;4.68;2.40;;;;;;;16.53;69.97;98458.50;5042531;28;20049;-78
2021/05/31 08:49:03;;;;;;;5.32;2.10;;;;;;;16.52;73.15;98476.00;5035736;28;20040;-79
2021/05/31 08:51:32;;;;;;;2.78;2.28;;;;;;;16.25;74.04;98471.03;5055622;28;20041;-79
2021/05/31 08:54:02;;;;;;;2.95;2.38;;;;;;;16.21;83.24;98477.16;5053101;28;20048;-80
2021/05/31 08:56:30;;;;;;;5.57;2.72;;;;;;;16.44;77.10;98474.91;5037349;28;20416;-80
2021/05/31 08:58:58;;;;;;;4.45;2.47;;;;;;;16.81;73.82;98465.03;5049418;28;20065;-79
2021/05/31 09:01:27;;;;;;;3.88;2.30;;;;;;;17.10;70.36;98453.97;5054128;28;20040;-78
2021/05/31 09:03:56;;;;;;;4.57;2.38;;;;;;;17.40;69.67;98451.88;5036340;28;20484;-80
2021/05/31 09:06:25;;;;;;;4.25;2.55;;;;;;;17.80;64.95;98463.03;5052805;28;20078;-78
2021/05/31 09:09:00;;;;;;;4.30;2.38;;;;;;;18.28;66.55;98445.75;5051658;28;20479;-80
2021/05/31 09:11:28;;;;;;;5.13;2.55;;;;;;;18.40;62.78;98449.28;5033831;28;20626;-80
2021/05/31 09:13:57;;;;;;;4.72;2.40;;;;;;;17.93;58.33;98453.69;5055894;28;20048;-80
2021/05/31 09:16:28;;;;;;;4.22;2.75;;;;;;;17.94;64.54;98453.31;5023226;28;20715;-81
2021/05/31 09:18:58;;;;;;;3.60;2.40;;;;;;;18.39;60.34;98458.66;5060205;28;20060;-79
2021/05/31 09:21:38;;;;;;;5.40;2.92;;;;;;;19.28;60.15;98460.06;5032589;28;20127;-78
2021/05/31 09:24:07;;;;;;;4.70;2.60;;;;;;;19.57;52.44;98436.13;5031814;28;20088;-79
2021/05/31 09:26:59;;;;;;;4.35;2.53;;;;;;;19.82;52.62;98443.81;5032280;28;20083;-77
2021/05/31 09:29:29;;;;;;;3.25;2.58;;;;;;;18.96;52.36;98439.19;5015590;28;20463;-79
2021/05/31 09:32:05;;;;;;;3.10;2.20;;;;;;;19.61;52.02;98442.53;5032439;28;20040;-77
2021/05/31 09:34:32;;;;;;;;;;;;;;;20.47;47.81;98438.69;5033116;28;20037;-79
2021/05/31 09:37:02;;;;;;;6.25;2.60;;;;;;;20.93;46.48;98429.44;5032860;28;19924;-78
2021/05/31 09:39:38;;;;;;;5.53;2.58;;;;;;;21.58;43.43;98432.22;5032500;28;20045;-79
2021/05/31 09:42:14;;;;;;;6.07;2.95;;;;;;;21.94;43.08;98430.91;5050728;28;20413;-78
2021/05/31 09:44:42;;;;;;;7.03;3.10;;;;;;;22.62;42.51;98425.19;5051010;28;20036;-78
2021/05/31 09:47:09;;;;;;;5.78;2.65;;;;;;;23.08;39.15;98426.56;5015319;28;20152;-78
2021/05/31 09:49:36;;;;;;;5.25;2.65;;;;;;;23.35;40.17;98419.78;5037883;28;20040;-77
2021/05/31 09:52:09;;;;;;;5.72;2.70;;;;;;;23.43;39.31;98417.91;5040285;28;20052;-76
2021/05/31 09:54:44;;;;;;;4.45;3.10;;;;;;;22.11;39.06;98417.41;5052596;28;20488;-79
2021/05/31 09:57:24;;;;;;;7.03;2.58;;;;;;;22.08;41.28;98420.88;5034099;28;20052;-79
2021/05/31 10:00:20;;;;;;;6.43;2.70;;;;;;;23.28;39.87;98422.44;5054310;28;20037;-80
2021/05/31 10:03:06;;;;;;;4.65;2.80;;;;;;;22.40;39.45;98417.81;5051161;28;20496;-74
2021/05/31 10:05:39;;;;;;;4.68;2.65;;;;;;;22.76;40.15;98428.94;5032041;28;20094;-76
2021/05/31 10:10:53;;;;;;;6.72;3.22;;;;;;;22.73;40.27;98412.34;5036391;28;20095;-77
2021/05/31 10:13:20;;;;;;;8.80;3.83;;;;;;;21.86;41.31;98409.91;5035169;28;20065;-74
2021/05/31 10:15:46;;;;;;;8.18;3.70;;;;;;;22.04;41.83;98416.50;5032615;28;20091;-77
2021/05/31 10:18:18;;;;;;;7.72;3.60;;;;;;;23.07;42.33;98405.66;5051389;28;20549;-75
2021/05/31 10:20:46;;;;;;;4.93;3.28;;;;;;;24.82;38.01;98404.66;5047592;28;20044;-75
2021/05/31 10:23:14;;;;;;;6.95;3.63;;;;;;;25.05;37.34;98407.91;5048096;28;20037;-79
2021/05/31 10:25:46;;;;;;;4.35;3.38;;;;;;;26.02;33.30;98400.09;5049885;28;20111;-78
2021/05/31 10:28:20;;;;;;;5.40;3.15;;;;;;;26.80;33.50;98391.63;5049506;28;20642;-80
2021/05/31 10:30:52;;;;;;;3.67;2.63;;;;;;;27.80;31.06;98396.16;5055027;28;20465;-82
2021/05/31 10:33:21;;;;;;;4.85;2.60;;;;;;;26.12;31.79;98386.63;5032694;28;20144;-78
2021/05/31 10:35:49;;;;;;;4.80;2.53;;;;;;;27.49;31.22;98382.50;5045272;28;20040;-80
2021/05/31 10:38:26;;;;;;;4.43;2.50;;;;;;;25.80;32.74;98381.91;5056898;28;20044;-79
2021/05/31 10:40:54;;;;;;;3.00;2.38;;;;;;;27.80;30.19;98382.25;5024305;28;20029;-79
2021/05/31 10:43:24;;;;;;;3.72;2.20;;;;;;;27.39;30.86;98378.59;5052454;28;20053;-79
2021/05/31 10:46:03;;;;;;;4.95;2.50;;;;;;;27.53;32.06;98391.63;5051116;28;20587;-80
2021/05/31 10:48:39;;;;;;;4.15;2.50;;;;;;;28.69;30.73;98387.75;5026842;28;20055;-79
2021/05/31 10:51:13;;;;;;;3.45;2.50;;;;;;;29.79;27.91;98377.84;5041640;28;20052;-80
2021/05/31 10:53:40;;;;;;;3.65;2.30;;;;;;;29.26;29.30;98376.66;5034300;28;20045;-80
2021/05/31 10:56:25;;;;;;;3.80;2.55;;;;;;;27.29;30.49;98381.41;5034830;28;20059;-80
2021/05/31 10:58:55;;;;;;;3.88;2.70;;;;;;;27.30;30.79;98381.03;5032016;28;20056;-79
2021/05/31 11:01:28;;;;;;;3.72;2.45;;;;;;;29.23;30.17;98380.28;5031904;28;20044;-79
2021/05/31 11:04:03;;;;;;;3.53;2.65;;;;;;;28.89;28.47;98371.16;5063995;28;20143;-79
2021/05/31 11:06:35;;;;;;;3.40;2.50;;;;;;;29.73;27.66;98371.16;5037566;28;20553;-81
2021/05/31 11:09:15;;;;;;;3.75;2.20;;;;;;;30.89;26.21;98360.59;5072680;28;20564;-80
2021/05/31 11:11:49;;;;;;;5.18;2.38;;;;;;;27.27;30.11;98373.50;5056384;28;20045;-79
2021/05/31 11:14:29;;;;;;;3.67;2.20;;;;;;;29.53;27.69;98369.06;5051081;28;20076;-79
2021/05/31 11:17:01;;;;;;;2.95;2.50;;;;;;;29.24;27.98;98370.69;5033743;28;20052;-79
2021/05/31 11:19:40;;;;;;;3.50;2.30;;;;;;;29.94;26.48;98368.81;5052774;28;20505;-79
2021/05/31 11:22:21;;;;;;;3.85;2.10;;;;;;;30.38;27.03;98366.84;5055238;28;20091;-80
2021/05/31 11:24:59;;;;;;;3.63;2.55;;;;;;;31.68;25.77;98357.59;5033300;28;20630;-74
2021/05/31 11:27:31;;;;;;;4.85;2.20;;;;;;;30.70;25.53;98358.59;5048136;28;20768;-73
2021/05/31 11:30:04;;;;;;;4.47;2.40;;;;;;;30.34;26.44;98350.13;5045454;28;20045;-72
2021/05/31 11:32:30;;;;;;;3.90;2.67;;;;;;;29.50;27.63;98355.94;5054647;28;20056;-73
2021/05/31 11:35:01;;;;;;;4.05;2.88;;;;;;;28.93;26.63;98358.75;5049605;28;20672;-74
2021/05/31 11:37:38;;;;;;;3.47;2.10;;;;;;;29.31;28.56;98348.28;5050815;28;20041;-75
2021/05/31 11:40:14;;;;;;;5.47;2.55;;;;;;;29.76;26.77;98351.53;5050920;28;20049;-74
2021/05/31 11:42:47;;;;;;;2.63;2.13;;;;;;;30.30;26.21;98348.63;5049958;28;20048;-73
2021/05/31 11:45:17;;;;;;;3.78;2.25;;;;;;;30.85;26.40;98343.88;5050057;28;20196;-73
2021/05/31 11:47:44;;;;;;;4.05;2.47;;;;;;;27.83;27.30;98339.69;5051477;28;20044;-75
2021/05/31 11:50:20;;;;;;;5.10;2.20;;;;;;;29.63;28.06;98337.41;5049669;28;20111;-73
2021/05/31 11:52:47;;;;;;;5.75;2.00;;;;;;;30.68;25.79;98342.28;5050729;28;20574;-73
2021/05/31 11:55:15;;;;;;;6.43;2.17;;;;;;;29.46;26.91;98340.47;5043620;28;20107;-73